createdAt,value
2023-04-21T00:01:26.303Z,58.80
2023-04-21T00:03:58.369Z,58.79
2023-04-21T00:06:29.178Z,58.72
2023-04-21T00:08:59.624Z,58.64
2023-04-21T00:11:30.432Z,58.59
2023-04-21T00:14:01.372Z,58.56
2023-04-21T00:16:32.019Z,58.44
2023-04-21T00:19:03.151Z,58.53
2023-04-21T00:21:34.220Z,58.63
2023-04-21T00:24:04.881Z,58.41
2023-04-21T00:26:35.762Z,58.23
2023-04-21T00:29:06.475Z,58.48
2023-04-21T00:31:37.333Z,58.45
2023-04-21T00:34:08.703Z,58.36
2023-04-21T00:36:39.608Z,58.12
2023-04-21T00:39:10.168Z,58.02
2023-04-21T00:41:42.818Z,58.12
2023-04-21T00:44:14.132Z,58.17
2023-04-21T00:46:46.190Z,58.18
2023-04-21T00:49:18.784Z,58.30
2023-04-21T00:51:49.450Z,58.67
2023-04-21T00:54:20.730Z,58.75
2023-04-21T00:56:51.655Z,58.46
2023-04-21T00:59:22.320Z,58.50
2023-04-21T01:01:52.910Z,58.56
2023-04-21T01:04:25.333Z,58.39
2023-04-21T01:06:56.203Z,58.53
2023-04-21T01:09:27.016Z,58.25
2023-04-21T01:12:24.039Z,58.12
2023-04-21T01:14:55.114Z,58.19
2023-04-21T01:17:25.701Z,58.58
2023-04-21T01:19:58.811Z,57.92
2023-04-21T01:22:29.740Z,57.12
2023-04-21T01:25:00.591Z,57.49
2023-04-21T01:27:30.832Z,57.19
2023-04-21T01:30:01.203Z,57.85
2023-04-21T01:32:33.709Z,57.91
2023-04-21T01:35:04.636Z,57.92
2023-04-21T01:37:36.680Z,57.87
2023-04-21T01:40:10.009Z,57.93
2023-04-21T01:42:43.214Z,57.83
2023-04-21T01:45:14.975Z,57.82
2023-04-21T01:47:45.632Z,57.81
2023-04-21T01:50:16.778Z,57.57
2023-04-21T01:52:47.155Z,58.17
2023-04-21T01:55:18.531Z,57.98
2023-04-21T01:57:48.700Z,57.33
2023-04-21T02:00:19.378Z,57.44
2023-04-21T02:02:51.135Z,57.29
2023-04-21T02:05:21.707Z,57.19
2023-04-21T02:07:51.950Z,57.36
2023-04-21T02:10:24.613Z,57.86
2023-04-21T02:12:54.739Z,57.41
2023-04-21T02:15:24.871Z,57.25
2023-04-21T02:17:55.001Z,57.44
2023-04-21T02:20:28.735Z,57.02
2023-04-21T02:22:59.041Z,57.26
2023-04-21T02:25:32.186Z,57.04
2023-04-21T02:28:02.523Z,56.98
2023-04-21T02:30:32.819Z,56.86
2023-04-21T02:33:03.209Z,56.86
2023-04-21T02:35:36.104Z,56.92
2023-04-21T02:38:09.693Z,57.08
2023-04-21T02:40:40.306Z,57.21
2023-04-21T02:43:11.019Z,57.49
2023-04-21T02:45:41.292Z,57.68
2023-04-21T02:48:12.190Z,56.67
2023-04-21T02:50:42.662Z,56.99
2023-04-21T02:53:12.847Z,57.09
2023-04-21T02:55:43.264Z,56.77
2023-04-21T02:58:13.895Z,56.70
2023-04-21T03:00:44.974Z,56.52
2023-04-21T03:03:15.612Z,56.57
2023-04-21T03:05:45.914Z,56.59
2023-04-21T03:08:16.316Z,56.32
2023-04-21T03:10:46.637Z,56.61
2023-04-21T03:13:16.977Z,56.58
2023-04-21T03:15:47.545Z,56.23
2023-04-21T03:18:19.908Z,56.43
2023-04-21T03:20:50.356Z,56.11
2023-04-21T03:23:20.726Z,56.05
2023-04-21T03:25:51.082Z,56.24
2023-04-21T03:28:21.896Z,56.11
2023-04-21T03:30:52.224Z,56.24
2023-04-21T03:33:22.585Z,56.48
2023-04-21T03:35:53.367Z,56.33
2023-04-21T03:38:23.697Z,55.82
2023-04-21T03:40:53.797Z,56.06
2023-04-21T03:43:24.646Z,56.35
2023-04-21T03:45:55.012Z,56.03
2023-04-21T03:48:25.210Z,56.28
2023-04-21T03:50:55.420Z,56.10
2023-04-21T03:53:25.820Z,55.92
2023-04-21T03:55:56.175Z,56.05
2023-04-21T03:58:26.590Z,55.74
2023-04-21T04:00:56.989Z,55.81
2023-04-21T04:03:27.400Z,55.97
2023-04-21T04:05:58.591Z,55.49
2023-04-21T04:08:28.919Z,55.71
2023-04-21T04:10:59.115Z,55.62
2023-04-21T04:13:30.031Z,55.31
2023-04-21T04:16:01.364Z,55.39
2023-04-21T04:18:31.583Z,55.55
2023-04-21T04:21:01.736Z,55.31
2023-04-21T04:23:31.915Z,55.26
2023-04-21T04:26:02.176Z,55.40
2023-04-21T04:28:33.241Z,55.04
2023-04-21T04:31:05.391Z,55.07
2023-04-21T04:33:35.612Z,54.77
2023-04-21T04:36:06.590Z,54.60
2023-04-21T04:38:39.828Z,54.48
2023-04-21T04:41:11.579Z,54.48
2023-04-21T04:43:41.917Z,54.68
2023-04-21T04:46:15.341Z,54.33
2023-04-21T04:48:45.583Z,54.60
2023-04-21T04:51:16.043Z,54.37
2023-04-21T04:53:46.387Z,54.12
2023-04-21T04:56:16.780Z,53.58
2023-04-21T04:58:49.342Z,53.26
2023-04-21T05:01:20.409Z,53.62
2023-04-21T05:03:51.452Z,53.38
2023-04-21T05:06:21.589Z,53.62
2023-04-21T05:08:51.672Z,53.35
2023-04-21T05:11:21.960Z,53.24
2023-04-21T05:13:52.175Z,53.21
2023-04-21T05:16:22.584Z,52.99
2023-04-21T05:18:56.309Z,53.01
2023-04-21T05:21:30.695Z,53.05
2023-04-21T05:24:01.924Z,52.50
2023-04-21T05:26:32.703Z,52.74
2023-04-21T05:29:03.544Z,52.99
2023-04-21T05:31:33.922Z,52.70
2023-04-21T05:34:04.264Z,51.59
2023-04-21T05:36:34.905Z,51.15
2023-04-21T05:39:05.225Z,50.96
2023-04-21T05:41:35.654Z,50.54
2023-04-21T05:44:05.931Z,49.93
2023-04-21T05:46:37.350Z,49.81
2023-04-21T05:49:07.670Z,50.12
2023-04-21T05:51:38.162Z,49.28
2023-04-21T05:54:08.469Z,48.88
2023-04-21T05:56:38.950Z,48.63
2023-04-21T05:59:09.545Z,48.53
2023-04-21T06:01:40.100Z,48.62
2023-04-21T06:04:10.626Z,48.57
2023-04-21T06:06:41.086Z,48.53
2023-04-21T06:09:11.193Z,48.80
2023-04-21T06:11:41.456Z,48.76
2023-04-21T06:14:11.701Z,48.68
2023-04-21T06:16:42.022Z,49.02
2023-04-21T06:19:12.233Z,48.99
2023-04-21T06:21:42.617Z,48.94
2023-04-21T06:24:12.955Z,48.92
2023-04-21T06:26:43.218Z,48.77
2023-04-21T06:29:13.549Z,49.10
2023-04-21T06:31:43.914Z,48.99
2023-04-21T06:34:14.175Z,49.15
2023-04-21T06:36:44.418Z,48.94
2023-04-21T06:39:14.597Z,49.08
2023-04-21T06:41:44.659Z,49.44
2023-04-21T06:44:16.520Z,49.52
2023-04-21T06:46:46.826Z,49.52
2023-04-21T06:49:17.453Z,49.58
2023-04-21T06:51:48.718Z,49.64
2023-04-21T06:54:19.340Z,49.53
2023-04-21T06:56:49.668Z,49.59
2023-04-21T06:59:20.772Z,49.40
2023-04-21T07:01:54.559Z,49.46
2023-04-21T07:04:24.940Z,49.21
2023-04-21T07:06:55.254Z,48.86
2023-04-21T07:09:25.545Z,48.87
2023-04-21T07:11:55.850Z,48.51
2023-04-21T07:14:25.918Z,48.42
2023-04-21T07:16:57.500Z,48.35
2023-04-21T07:19:28.394Z,48.20
2023-04-21T07:21:58.438Z,48.01
2023-04-21T07:24:28.518Z,47.90
2023-04-21T07:26:58.745Z,47.76
2023-04-21T07:29:29.333Z,47.71
2023-04-21T07:32:00.864Z,47.72
2023-04-21T07:34:31.129Z,47.63
2023-04-21T07:37:01.415Z,47.82
2023-04-21T07:39:31.590Z,47.92
2023-04-21T07:42:01.953Z,48.08
2023-04-21T07:44:32.192Z,47.96
2023-04-21T07:47:02.492Z,48.28
2023-04-21T07:49:32.896Z,48.15
2023-04-21T07:52:03.248Z,48.42
2023-04-21T07:54:33.808Z,48.34
2023-04-21T07:57:05.063Z,48.41
2023-04-21T07:59:35.144Z,48.47
2023-04-21T08:02:05.454Z,48.24
2023-04-21T08:04:35.897Z,48.27
2023-04-21T08:07:06.612Z,48.36
2023-04-21T08:09:37.423Z,48.45
2023-04-21T08:12:07.751Z,48.75
2023-04-21T08:14:38.268Z,48.59
2023-04-21T08:17:08.746Z,48.54
2023-04-21T08:19:39.093Z,48.74
2023-04-21T08:22:09.486Z,48.62
2023-04-21T08:24:39.786Z,48.79
2023-04-21T08:27:10.097Z,48.72
2023-04-21T08:29:40.208Z,48.68
2023-04-21T08:32:10.598Z,48.79
2023-04-21T08:34:41.007Z,48.58
2023-04-21T08:37:11.352Z,48.24
2023-04-21T08:39:41.763Z,48.26
2023-04-21T08:42:12.654Z,48.05
2023-04-21T08:44:44.088Z,47.77
2023-04-21T08:47:16.072Z,47.58
2023-04-21T08:49:49.546Z,47.54
2023-04-21T08:52:20.747Z,47.46
2023-04-21T08:54:54.372Z,47.42
2023-04-21T08:57:24.904Z,47.50
2023-04-21T08:59:55.203Z,47.18
2023-04-21T09:02:25.431Z,47.58
2023-04-21T09:04:58.127Z,47.39
2023-04-21T09:07:37.429Z,47.12
2023-04-21T09:10:09.267Z,46.58
2023-04-21T09:12:43.387Z,46.16
2023-04-21T09:15:15.030Z,45.91
2023-04-21T09:17:49.001Z,45.80
2023-04-21T09:20:24.125Z,46.02
2023-04-21T09:22:54.937Z,45.84
2023-04-21T09:25:25.595Z,46.12
2023-04-21T09:27:58.471Z,45.71
2023-04-21T09:30:28.854Z,46.03
2023-04-21T09:33:01.054Z,45.88
2023-04-21T09:35:43.024Z,45.79
2023-04-21T09:38:15.336Z,45.83
2023-04-21T09:40:45.612Z,45.40
2023-04-21T09:43:16.202Z,45.95
2023-04-21T09:45:46.693Z,45.85
2023-04-21T09:48:22.284Z,45.63
2023-04-21T09:51:22.988Z,45.34
2023-04-21T09:53:45.037Z,45.26
2023-04-21T09:56:17.069Z,44.90
2023-04-21T09:58:51.161Z,44.18
2023-04-21T10:01:23.287Z,44.32
2023-04-21T10:03:54.186Z,44.54
2023-04-21T10:06:25.645Z,44.38
2023-04-21T10:09:00.426Z,44.45
2023-04-21T10:11:30.918Z,44.15
2023-04-21T10:14:01.486Z,44.20
2023-04-21T10:16:32.021Z,44.33
2023-04-21T10:19:02.344Z,43.99
2023-04-21T10:21:32.670Z,43.79
2023-04-21T10:24:02.753Z,43.99
2023-04-21T10:26:38.852Z,43.46
2023-04-21T10:29:11.274Z,43.53
2023-04-21T10:31:46.828Z,43.90
2023-04-21T10:34:18.144Z,43.61
2023-04-21T10:36:49.318Z,43.74
2023-04-21T10:39:36.035Z,43.25
2023-04-21T10:42:25.525Z,43.52
2023-04-21T10:45:01.476Z,43.45
2023-04-21T10:47:46.575Z,43.26
2023-04-21T10:51:00.317Z,43.27
2023-04-21T10:53:46.555Z,43.23
2023-04-21T10:56:17.351Z,43.11
2023-04-21T10:58:47.735Z,43.18
2023-04-21T11:01:18.855Z,43.28
2023-04-21T11:03:49.584Z,43.33
2023-04-21T11:06:20.980Z,43.32
2023-04-21T11:09:00.846Z,43.72
2023-04-21T11:11:31.204Z,43.48
2023-04-21T11:14:05.290Z,43.50
2023-04-21T11:16:37.183Z,43.59
2023-04-21T11:19:07.410Z,43.61
2023-04-21T11:21:37.551Z,43.85
2023-04-21T11:24:08.038Z,43.98
2023-04-21T11:26:45.069Z,44.37
2023-04-21T11:29:15.445Z,43.61
2023-04-21T11:31:52.677Z,44.00
2023-04-21T11:34:27.840Z,44.16
2023-04-21T11:36:58.829Z,43.99
2023-04-21T11:39:29.053Z,44.15
2023-04-21T11:41:59.484Z,43.87
2023-04-21T11:44:42.041Z,44.31
2023-04-21T11:47:23.730Z,43.69
2023-04-21T11:50:02.189Z,43.74
2023-04-21T11:52:39.701Z,43.41
2023-04-21T11:55:23.457Z,43.56
2023-04-21T11:57:56.591Z,43.30
2023-04-21T12:00:27.434Z,43.10
2023-04-21T12:02:59.234Z,43.29
2023-04-21T12:05:38.568Z,43.55
2023-04-21T12:08:09.846Z,43.49
2023-04-21T12:10:40.127Z,43.35
2023-04-21T12:13:10.568Z,43.42
2023-04-21T12:15:40.910Z,43.61
2023-04-21T12:18:16.642Z,43.12
2023-04-21T12:20:54.701Z,43.71
2023-04-21T12:23:24.915Z,43.53
2023-04-21T12:25:55.277Z,43.29
2023-04-21T12:28:25.846Z,43.06
2023-04-21T12:30:56.031Z,42.97
2023-04-21T12:33:27.600Z,43.25
2023-04-21T12:35:58.068Z,42.94
2023-04-21T12:38:28.635Z,42.91
2023-04-21T12:40:58.914Z,43.34
2023-04-21T12:43:29.304Z,43.18
2023-04-21T12:45:59.707Z,42.71
2023-04-21T12:48:30.044Z,42.91
2023-04-21T12:51:00.196Z,42.33
2023-04-21T12:53:31.277Z,42.57
2023-04-21T12:56:05.060Z,43.58
2023-04-21T12:58:35.865Z,44.07
2023-04-21T13:03:18.520Z,45.13
2023-04-21T13:05:48.960Z,45.51
2023-04-21T13:08:19.692Z,46.55
2023-04-21T13:10:50.021Z,47.03
2023-04-21T13:13:20.507Z,47.43
2023-04-21T13:15:51.629Z,47.90
2023-04-21T13:18:21.949Z,48.26
2023-04-21T13:20:52.444Z,49.13
2023-04-21T13:23:22.831Z,49.91
2023-04-21T13:25:53.338Z,50.89
2023-04-21T13:28:23.786Z,51.51
2023-04-21T13:30:55.706Z,52.16
2023-04-21T13:33:26.757Z,52.51
2023-04-21T13:35:57.100Z,53.30
2023-04-21T13:38:28.062Z,53.83
2023-04-21T13:40:59.302Z,53.73
2023-04-21T13:43:29.743Z,54.39
2023-04-21T13:46:00.624Z,54.48
2023-04-21T13:48:32.148Z,54.78
2023-04-21T13:51:03.311Z,54.30
2023-04-21T13:53:33.661Z,54.54
2023-04-21T13:56:03.923Z,54.20
2023-04-21T13:58:34.876Z,53.68
2023-04-21T14:01:06.347Z,53.63
2023-04-21T14:03:36.905Z,53.56
2023-04-21T14:06:07.563Z,53.34
2023-04-21T14:08:38.601Z,53.40
2023-04-21T14:11:08.989Z,53.70
2023-04-21T14:13:44.913Z,54.35
2023-04-21T14:16:18.707Z,55.28
2023-04-21T14:18:49.844Z,55.60
2023-04-21T14:21:20.038Z,55.65
2023-04-21T14:23:50.556Z,55.69
2023-04-21T14:26:21.270Z,56.02
2023-04-21T14:28:53.157Z,56.39
2023-04-21T14:31:23.845Z,56.70
2023-04-21T14:33:54.194Z,56.81
2023-04-21T14:36:24.537Z,56.82
2023-04-21T14:38:54.751Z,56.89
2023-04-21T14:41:24.829Z,57.64
2023-04-21T14:43:57.258Z,58.05
2023-04-21T14:46:28.031Z,58.29
2023-04-21T14:49:00.044Z,58.48
2023-04-21T14:51:30.782Z,58.90
2023-04-21T14:54:01.512Z,58.77
2023-04-21T14:56:31.878Z,58.96
2023-04-21T14:59:02.345Z,59.09
2023-04-21T15:01:33.187Z,59.06
2023-04-21T15:04:04.313Z,59.23
2023-04-21T15:06:34.946Z,59.27
2023-04-21T15:09:06.586Z,59.35
2023-04-21T15:11:37.396Z,59.41
2023-04-21T15:14:07.917Z,59.58
2023-04-21T15:16:38.471Z,59.72
2023-04-21T15:19:08.928Z,59.69
2023-04-21T15:21:39.277Z,59.56
2023-04-21T15:24:09.998Z,59.98
2023-04-21T15:26:40.509Z,59.92
2023-04-21T15:29:10.739Z,59.54
2023-04-21T15:31:41.074Z,59.84
2023-04-21T15:34:11.559Z,60.35
2023-04-21T15:36:41.681Z,60.74
2023-04-21T15:39:17.405Z,60.62
2023-04-21T15:41:47.725Z,60.56
2023-04-21T15:44:17.949Z,60.70
2023-04-21T15:46:48.276Z,61.04
2023-04-21T15:49:18.713Z,61.31
2023-04-21T15:51:49.079Z,61.37
2023-04-21T15:54:19.513Z,61.54
2023-04-21T15:56:49.792Z,61.46
2023-04-21T15:59:20.260Z,61.93
2023-04-21T16:01:50.598Z,61.77
2023-04-21T16:04:21.434Z,61.57
2023-04-21T16:06:52.379Z,61.99
2023-04-21T16:09:23.954Z,61.81
2023-04-21T16:11:54.476Z,62.00
2023-04-21T16:14:25.418Z,62.05
2023-04-21T16:16:55.530Z,61.91
2023-04-21T16:19:26.000Z,62.28
2023-04-21T16:21:57.505Z,62.17
2023-04-21T16:24:28.254Z,62.05
2023-04-21T16:27:00.051Z,62.15
2023-04-21T16:29:30.454Z,62.68
2023-04-21T16:32:01.006Z,62.38
2023-04-21T16:34:31.469Z,62.60
2023-04-21T16:37:01.996Z,62.34
2023-04-21T16:39:32.256Z,62.51
2023-04-21T16:42:02.739Z,62.77
2023-04-21T16:44:33.271Z,62.81
2023-04-21T16:47:03.922Z,62.69
2023-04-21T16:49:34.213Z,62.90
2023-04-21T16:52:04.606Z,62.79
2023-04-21T16:54:34.893Z,62.90
2023-04-21T16:57:05.382Z,63.03
2023-04-21T16:59:35.832Z,62.86
2023-04-21T17:02:06.196Z,63.15
2023-04-21T17:04:36.541Z,63.02
2023-04-21T17:07:06.850Z,63.32
2023-04-21T17:09:37.144Z,63.04
2023-04-21T17:12:07.869Z,63.27
2023-04-21T17:14:38.933Z,63.24
2023-04-21T17:17:09.686Z,63.26
2023-04-21T17:19:40.055Z,63.20
2023-04-21T17:22:10.150Z,63.21
2023-04-21T17:24:51.909Z,63.43
2023-04-21T17:27:23.334Z,62.84
2023-04-21T17:29:53.816Z,62.98
2023-04-21T17:32:24.780Z,62.89
2023-04-21T17:34:55.408Z,62.65
2023-04-21T17:37:25.901Z,62.88
2023-04-21T17:39:56.484Z,62.90
2023-04-21T17:42:26.902Z,62.93
2023-04-21T17:44:57.327Z,62.90
2023-04-21T17:47:27.755Z,62.80
2023-04-21T17:49:59.005Z,62.80
2023-04-21T17:52:29.368Z,62.61
2023-04-21T17:54:59.570Z,62.74
2023-04-21T17:57:30.060Z,62.88
2023-04-21T18:00:00.893Z,62.93
2023-04-21T18:02:31.372Z,62.87
2023-04-21T18:05:01.805Z,62.80
2023-04-21T18:07:32.136Z,62.98
2023-04-21T18:10:02.800Z,62.76
2023-04-21T18:12:33.047Z,62.83
2023-04-21T18:15:03.844Z,62.88
2023-04-21T18:17:34.553Z,62.56
2023-04-21T18:20:05.032Z,62.55
2023-04-21T18:22:37.764Z,62.95
2023-04-21T18:25:08.597Z,62.94
2023-04-21T18:27:38.677Z,62.95
2023-04-21T18:30:11.179Z,63.00
2023-04-21T18:32:42.763Z,62.92
2023-04-21T18:35:13.058Z,63.12
2023-04-21T18:37:43.285Z,63.00
2023-04-21T18:40:14.095Z,62.86
2023-04-21T18:42:44.413Z,62.93
2023-04-21T18:45:14.856Z,62.90
2023-04-21T18:47:45.113Z,62.69
2023-04-21T18:50:15.481Z,63.18
2023-04-21T18:52:45.768Z,63.13
2023-04-21T18:55:17.693Z,62.97
2023-04-21T18:57:47.974Z,62.96
2023-04-21T19:00:18.534Z,63.38
2023-04-21T19:02:50.997Z,63.28
2023-04-21T19:05:21.439Z,63.09
2023-04-21T19:07:51.768Z,63.20
2023-04-21T19:10:22.132Z,63.10
2023-04-21T19:12:52.540Z,63.27
2023-04-21T19:15:23.741Z,63.57
2023-04-21T19:17:53.706Z,63.48
2023-04-21T19:20:24.192Z,63.45
2023-04-21T19:22:54.462Z,63.22
2023-04-21T19:25:24.749Z,63.35
2023-04-21T19:27:54.997Z,63.62
2023-04-21T19:30:25.462Z,63.30
2023-04-21T19:32:56.615Z,63.54
2023-04-21T19:35:26.969Z,63.52
2023-04-21T19:37:57.033Z,63.36
2023-04-21T19:40:27.433Z,63.63
2023-04-21T19:42:58.139Z,63.56
2023-04-21T19:45:28.860Z,63.46
2023-04-21T19:47:59.103Z,63.63
2023-04-21T19:50:29.885Z,63.68
2023-04-21T19:53:00.169Z,63.68
2023-04-21T19:55:31.110Z,63.58
2023-04-21T19:58:01.861Z,63.55
2023-04-21T20:00:32.266Z,63.64
2023-04-21T20:03:02.639Z,63.60
2023-04-21T20:05:32.776Z,63.76
2023-04-21T20:08:03.101Z,63.75
2023-04-21T20:10:33.441Z,64.04
2023-04-21T20:13:03.761Z,63.48
2023-04-21T20:15:34.784Z,63.86
2023-04-21T20:18:05.136Z,63.89
2023-04-21T20:20:35.993Z,63.70
2023-04-21T20:23:06.571Z,63.90
2023-04-21T20:25:36.763Z,64.09
2023-04-21T20:28:06.946Z,63.99
2023-04-21T20:30:37.062Z,63.73
2023-04-21T20:33:07.512Z,64.04
2023-04-21T20:35:41.768Z,64.08
2023-04-21T20:38:12.710Z,64.10
2023-04-21T20:40:43.001Z,64.07
2023-04-21T20:43:15.272Z,64.33
2023-04-21T20:45:46.947Z,64.39
2023-04-21T20:48:17.208Z,64.54
2023-04-21T20:50:49.133Z,64.34
2023-04-21T20:53:21.504Z,64.48
2023-04-21T20:55:53.011Z,64.70
2023-04-21T20:58:23.373Z,64.65
2023-04-21T21:00:53.703Z,64.50
2023-04-21T21:03:24.111Z,64.67
2023-04-21T21:05:54.336Z,64.76
2023-04-21T21:08:24.580Z,64.85
2023-04-21T21:10:54.738Z,64.79
2023-04-21T21:13:25.117Z,64.96
2023-04-21T21:15:55.426Z,64.77
2023-04-21T21:18:25.660Z,64.75
2023-04-21T21:20:55.720Z,64.76
2023-04-21T21:23:25.826Z,64.95
2023-04-21T21:25:56.048Z,65.09
2023-04-21T21:28:26.220Z,64.89
2023-04-21T21:30:56.447Z,64.46
2023-04-21T21:33:26.614Z,65.09
2023-04-21T21:35:56.734Z,64.91
2023-04-21T21:38:27.075Z,65.08
2023-04-21T21:40:57.373Z,64.93
2023-04-21T21:43:27.694Z,65.15
2023-04-21T21:45:58.156Z,65.08
2023-04-21T21:48:28.370Z,65.16
2023-04-21T21:50:58.768Z,65.36
2023-04-21T21:53:29.084Z,65.50
2023-04-21T21:55:59.508Z,65.43
2023-04-21T21:58:30.406Z,65.37
2023-04-21T22:01:00.608Z,65.45
2023-04-21T22:03:31.122Z,65.34
2023-04-21T22:06:01.736Z,65.43
2023-04-21T22:08:32.048Z,65.64
2023-04-21T22:11:03.704Z,65.75
2023-04-21T22:13:34.413Z,65.94
2023-04-21T22:16:04.810Z,66.04
2023-04-21T22:18:35.238Z,66.16
2023-04-21T22:21:05.499Z,66.46
2023-04-21T22:23:35.870Z,66.90
2023-04-21T22:26:06.099Z,66.94
2023-04-21T22:28:36.531Z,67.00
2023-04-21T22:31:07.160Z,66.85
2023-04-21T22:33:37.670Z,66.99
2023-04-21T22:36:09.832Z,67.25
2023-04-21T22:38:40.792Z,67.12
2023-04-21T22:41:11.019Z,67.12
2023-04-21T22:43:41.439Z,67.33
2023-04-21T22:46:11.795Z,67.57
2023-04-21T22:48:42.190Z,67.22
2023-04-21T22:51:12.695Z,67.10
2023-04-21T22:53:44.449Z,67.60
2023-04-21T22:56:15.244Z,67.40
2023-04-21T22:58:45.988Z,67.19
2023-04-21T23:01:16.460Z,67.10
2023-04-21T23:03:46.932Z,67.30
2023-04-21T23:06:17.518Z,67.10
2023-04-21T23:08:48.042Z,67.30
2023-04-21T23:11:18.663Z,67.63
2023-04-21T23:13:49.111Z,67.59
2023-04-21T23:16:19.572Z,67.57
2023-04-21T23:18:49.867Z,67.38
2023-04-21T23:21:20.241Z,67.53
2023-04-21T23:23:50.466Z,67.48
2023-04-21T23:26:20.733Z,67.75
2023-04-21T23:28:51.063Z,67.20
2023-04-21T23:31:22.571Z,67.44
2023-04-21T23:33:52.915Z,67.72
2023-04-21T23:36:23.065Z,67.68
2023-04-21T23:38:53.410Z,67.64
2023-04-21T23:41:24.016Z,67.83
2023-04-21T23:43:54.431Z,67.75
2023-04-21T23:46:24.754Z,68.05
2023-04-21T23:48:55.101Z,68.15
2023-04-21T23:51:25.683Z,69.18
2023-04-21T23:53:56.325Z,69.43
2023-04-21T23:56:26.634Z,69.44
2023-04-21T23:58:57.962Z,69.48
